Time;durP1;ratioP1;P1;durP2;ratioP2;P2;SDS_P1;SDS_P2;PMS_P1;PMS_P2;Temp;Humidity;BMP_temperature;BMP_pressure;BME280_temperature;BME280_humidity;BME280_pressure;Samples;Min_cycle;Max_cycle;Signal;HPM_P1;HPM_P2
2021/05/01 00:01:18;;;;;;;3.30;2.67;;;;;;;0.09;100.00;99966.03;5068390;28;20071;-75
2021/05/01 00:04:22;;;;;;;5.43;3.20;;;;;;;0.03;100.00;99960.19;5068039;28;20127;-76
2021/05/01 00:07:25;;;;;;;3.85;2.80;;;;;;;0.00;100.00;99953.56;5070072;28;20063;-75
2021/05/01 00:10:29;;;;;;;7.72;2.53;;;;;;;0.00;100.00;99961.78;5070550;28;20513;-76
2021/05/01 00:13:34;;;;;;;3.80;3.28;;;;;;;0.02;100.00;99960.59;5071692;28;20044;-75
2021/05/01 00:16:37;;;;;;;7.03;2.50;;;;;;;0.04;100.00;99955.50;5071891;28;20063;-76
2021/05/01 00:19:40;;;;;;;3.72;3.38;;;;;;;0.06;100.00;99953.16;5071809;28;20059;-76
2021/05/01 00:22:44;;;;;;;3.38;3.08;;;;;;;0.09;100.00;99958.59;5072028;28;20414;-76
2021/05/01 00:25:48;;;;;;;3.53;3.05;;;;;;;0.11;100.00;99961.69;5071937;28;20051;-75
2021/05/01 00:28:51;;;;;;;8.25;2.58;;;;;;;0.10;100.00;99959.38;5071862;28;20056;-76
2021/05/01 00:31:55;;;;;;;6.10;3.45;;;;;;;0.10;100.00;99959.38;5071931;28;20390;-76
2021/05/01 00:34:58;;;;;;;6.70;3.47;;;;;;;0.09;100.00;99957.81;5071877;28;20497;-77
2021/05/01 00:38:02;;;;;;;4.40;2.83;;;;;;;0.06;100.00;99953.94;5070897;28;20059;-75
2021/05/01 00:41:06;;;;;;;2.70;2.50;;;;;;;0.06;100.00;99961.34;5071295;28;20051;-75
2021/05/01 00:44:09;;;;;;;3.80;3.50;;;;;;;0.05;100.00;99957.03;5071598;28;20048;-75
2021/05/01 00:47:13;;;;;;;3.13;2.55;;;;;;;0.05;100.00;99968.00;5071563;28;20056;-75
2021/05/01 00:50:16;;;;;;;4.72;3.50;;;;;;;0.00;100.00;99961.78;5071651;28;20048;-75
2021/05/01 00:53:19;;;;;;;3.65;3.33;;;;;;;-0.06;100.00;99957.13;5071453;28;20039;-76
2021/05/01 00:56:23;;;;;;;2.05;1.95;;;;;;;-0.10;100.00;99962.63;5071331;28;20051;-75
2021/05/01 00:59:26;;;;;;;5.07;4.10;;;;;;;-0.12;100.00;99959.53;5071345;28;20056;-75
2021/05/01 01:02:30;;;;;;;5.75;3.85;;;;;;;-0.15;100.00;99945.84;5071574;28;20099;-75
2021/05/01 01:05:33;;;;;;;7.68;3.95;;;;;;;-0.21;100.00;99953.72;5071459;28;20047;-75
2021/05/01 01:08:36;;;;;;;2.60;2.40;;;;;;;-0.27;100.00;99947.09;5071493;28;20399;-76
2021/05/01 01:11:41;;;;;;;2.33;2.22;;;;;;;-0.30;100.00;99947.91;5071177;28;20566;-76
2021/05/01 01:14:46;;;;;;;3.95;2.72;;;;;;;-0.30;100.00;99953.38;5054849;28;20044;-76
2021/05/01 01:17:49;;;;;;;21.33;3.42;;;;;;;-0.33;100.00;99943.25;5054485;28;20044;-75
2021/05/01 01:20:53;;;;;;;2.28;1.95;;;;;;;-0.35;100.00;99953.81;5054492;28;20040;-75
2021/05/01 01:23:57;;;;;;;5.10;3.42;;;;;;;-0.38;100.00;99943.66;5054672;28;20060;-75
2021/05/01 01:27:00;;;;;;;2.95;2.67;;;;;;;-0.39;100.00;99946.81;5055056;28;20501;-76
2021/05/01 01:30:06;;;;;;;2.30;2.20;;;;;;;-0.41;100.00;99947.19;5042590;28;20055;-75
2021/05/01 01:33:10;;;;;;;2.15;2.05;;;;;;;-0.43;100.00;99937.81;5055675;28;20104;-80
2021/05/01 01:36:14;;;;;;;2.25;2.13;;;;;;;-0.42;100.00;99931.16;5055294;28;20040;-74
2021/05/01 01:39:20;;;;;;;5.03;2.85;;;;;;;-0.45;100.00;99940.94;5052250;28;20048;-77
2021/05/01 01:42:24;;;;;;;2.75;2.65;;;;;;;-0.43;100.00;99940.53;5052858;28;20052;-77
2021/05/01 01:45:28;;;;;;;3.15;2.95;;;;;;;-0.44;100.00;99941.72;5053411;28;20060;-76
2021/05/01 01:48:31;;;;;;;2.03;1.92;;;;;;;-0.48;100.00;99941.78;5053751;28;20056;-76
2021/05/01 01:51:35;;;;;;;2.97;2.72;;;;;;;-0.50;100.00;99937.88;5052416;28;20048;-77
2021/05/01 01:54:38;;;;;;;2.88;2.72;;;;;;;-0.56;100.00;99934.75;5061018;28;20056;-76
2021/05/01 01:57:42;;;;;;;3.22;1.80;;;;;;;-0.60;100.00;99931.25;5052604;28;20250;-74
2021/05/01 02:00:47;;;;;;;2.92;2.72;;;;;;;-0.66;100.00;99934.81;5052080;28;20056;-75
2021/05/01 02:03:50;;;;;;;2.55;2.45;;;;;;;-0.71;100.00;99932.50;5050767;28;20502;-75
2021/05/01 02:06:53;;;;;;;3.83;2.53;;;;;;;-0.77;100.00;99932.13;5051910;28;20060;-75
2021/05/01 02:09:57;;;;;;;2.72;2.33;;;;;;;-0.80;100.00;99921.97;5051741;28;20482;-75
2021/05/01 02:13:01;;;;;;;2.22;2.13;;;;;;;-0.81;100.00;99928.63;5059790;28;20047;-75
2021/05/01 02:16:04;;;;;;;4.65;2.45;;;;;;;-0.82;100.00;99938.78;5072108;28;20063;-75
2021/05/01 02:19:08;;;;;;;2.67;2.58;;;;;;;-0.83;100.00;99931.00;5072049;28;20391;-75
2021/05/01 02:22:11;;;;;;;3.03;2.53;;;;;;;-0.82;100.00;99936.06;5072237;28;20063;-79
2021/05/01 02:25:15;;;;;;;2.42;2.33;;;;;;;-0.82;100.00;99927.84;5071613;28;20449;-75
2021/05/01 02:28:19;;;;;;;11.23;3.20;;;;;;;-0.78;100.00;99930.59;5071015;28;20056;-76
2021/05/01 02:31:22;;;;;;;4.03;2.33;;;;;;;-0.75;100.00;99932.50;5072069;28;20055;-76
2021/05/01 02:34:25;;;;;;;2.55;2.40;;;;;;;-0.72;100.00;99936.41;5059697;28;20071;-77
2021/05/01 02:37:29;;;;;;;7.35;3.30;;;;;;;-0.75;100.00;99927.03;5071477;28;20059;-76
2021/05/01 02:40:33;;;;;;;5.70;2.50;;;;;;;-0.77;100.00;99929.41;5071485;28;20107;-76
2021/05/01 02:43:37;;;;;;;2.67;2.20;;;;;;;-0.81;100.00;99923.16;5071253;28;20068;-76
2021/05/01 02:46:41;;;;;;;2.75;2.53;;;;;;;-0.86;100.00;99926.31;5071522;28;20122;-76
2021/05/01 02:49:44;;;;;;;4.60;2.47;;;;;;;-0.92;100.00;99927.91;5070643;28;20056;-76
2021/05/01 02:52:48;;;;;;;2.60;2.40;;;;;;;-0.96;100.00;99925.19;5071174;28;20060;-76
2021/05/01 02:55:51;;;;;;;5.35;4.32;;;;;;;-0.98;100.00;99926.75;5071203;28;20529;-76
2021/05/01 02:58:54;;;;;;;3.20;2.22;;;;;;;-1.00;100.00;99915.44;5071102;28;20055;-75
2021/05/01 03:01:58;;;;;;;2.33;2.22;;;;;;;-0.95;100.00;99928.69;5071170;28;20052;-76
2021/05/01 03:05:01;;;;;;;2.38;2.28;;;;;;;-0.97;100.00;99925.56;5070982;28;20540;-75
2021/05/01 03:08:05;;;;;;;2.40;2.30;;;;;;;-1.00;100.00;99920.91;5071038;28;20079;-76
2021/05/01 03:11:09;;;;;;;5.85;2.60;;;;;;;-1.06;100.00;99917.03;5071066;28;20486;-76
2021/05/01 03:14:12;;;;;;;3.00;2.85;;;;;;;-1.11;100.00;99917.44;5070699;28;20071;-77
2021/05/01 03:17:15;;;;;;;3.90;2.42;;;;;;;-1.13;100.00;99915.09;5070783;28;20056;-76
2021/05/01 03:20:19;;;;;;;3.13;2.95;;;;;;;-1.16;100.00;99923.28;5069906;28;20501;-76
2021/05/01 03:23:25;;;;;;;2.00;1.90;;;;;;;-1.16;100.00;99923.28;5071020;28;20055;-76
2021/05/01 03:26:29;;;;;;;2.55;2.45;;;;;;;-1.20;100.00;99917.06;5071010;28;20048;-75
2021/05/01 03:29:32;;;;;;;3.35;3.05;;;;;;;-1.24;100.00;99917.09;5070376;28;20052;-76
2021/05/01 03:32:37;;;;;;;2.42;2.35;;;;;;;-1.27;100.00;99917.06;5070754;28;20059;-76
2021/05/01 03:35:41;;;;;;;10.18;3.47;;;;;;;-1.29;100.00;99916.69;5070301;28;20410;-76
2021/05/01 03:38:45;;;;;;;2.38;2.20;;;;;;;-1.24;100.00;99921.75;5074239;28;20053;-76
2021/05/01 03:41:49;;;;;;;3.78;2.40;;;;;;;-1.19;100.00;99921.38;5073454;28;20063;-76
2021/05/01 03:44:52;;;;;;;2.67;2.58;;;;;;;-1.13;100.00;99917.03;5070091;28;20087;-75
2021/05/01 03:47:56;;;;;;;2.95;2.67;;;;;;;-1.04;100.00;99906.47;5069892;28;20067;-76
2021/05/01 03:50:59;;;;;;;2.53;2.42;;;;;;;-0.98;100.00;99913.09;5069808;28;20063;-76
2021/05/01 03:54:03;;;;;;;2.55;2.42;;;;;;;-0.95;100.00;99912.28;5070135;28;20052;-76
2021/05/01 03:57:06;;;;;;;2.00;1.90;;;;;;;-0.88;100.00;99917.72;5070371;28;20048;-76
2021/05/01 04:00:10;;;;;;;3.80;3.53;;;;;;;-0.80;100.00;99913.78;5070468;28;20052;-76
2021/05/01 04:03:13;;;;;;;2.45;2.35;;;;;;;-0.69;100.00;99919.97;5070415;28;20060;-76
2021/05/01 04:06:17;;;;;;;2.33;2.22;;;;;;;-0.60;100.00;99917.59;5069840;28;20055;-76
2021/05/01 04:09:20;;;;;;;6.85;3.20;;;;;;;-0.47;100.00;99921.44;5070414;28;20072;-76
2021/05/01 04:12:23;;;;;;;3.42;3.13;;;;;;;-0.40;100.00;99918.66;5070309;28;20107;-76
2021/05/01 04:15:28;;;;;;;2.00;1.88;;;;;;;-0.28;100.00;99920.91;5070592;28;20542;-76
2021/05/01 04:18:31;;;;;;;2.47;2.10;;;;;;;-0.23;100.00;99917.75;5069969;28;20076;-76
2021/05/01 04:21:35;;;;;;;2.53;2.42;;;;;;;-0.21;100.00;99923.59;5069970;28;20056;-76
2021/05/01 04:24:38;;;;;;;2.47;2.13;;;;;;;-0.16;100.00;99914.97;5069736;28;20052;-76
2021/05/01 04:27:42;;;;;;;3.35;2.25;;;;;;;-0.09;100.00;99923.13;5069872;28;20055;-76
2021/05/01 04:30:45;;;;;;;4.10;2.35;;;;;;;-0.06;100.00;99922.34;5069670;28;20052;-76
2021/05/01 04:33:49;;;;;;;2.75;2.10;;;;;;;-0.03;100.00;99918.81;5069958;28;20056;-76
2021/05/01 04:36:52;;;;;;;3.00;2.78;;;;;;;0.00;100.00;99917.97;5069728;28;20056;-76
2021/05/01 04:39:56;;;;;;;4.07;2.70;;;;;;;0.10;100.00;99938.25;5069722;28;20048;-76
2021/05/01 04:43:04;;;;;;;7.00;2.70;;;;;;;0.16;100.00;99924.91;5069802;28;20405;-76
2021/05/01 04:46:08;;;;;;;2.10;2.08;;;;;;;0.24;100.00;99932.66;5070215;28;20059;-76
2021/05/01 04:49:11;;;;;;;2.20;2.10;;;;;;;0.36;100.00;99934.91;5072816;28;20063;-76
2021/05/01 04:52:15;;;;;;;2.90;2.70;;;;;;;0.41;100.00;99936.44;5073700;28;20055;-76
2021/05/01 04:55:18;;;;;;;3.17;2.05;;;;;;;0.46;100.00;99925.03;5072931;28;20533;-76
2021/05/01 04:58:22;;;;;;;8.88;3.38;;;;;;;0.54;100.00;99930.03;5073112;28;20056;-76
2021/05/01 05:01:26;;;;;;;2.83;2.33;;;;;;;0.60;100.00;99944.06;5073432;28;20052;-76
2021/05/01 05:04:29;;;;;;;8.88;4.20;;;;;;;0.57;100.00;99933.91;5073587;28;20059;-76
2021/05/01 05:07:33;;;;;;;5.05;2.50;;;;;;;0.62;100.00;99952.66;5073894;28;20445;-76
2021/05/01 05:10:36;;;;;;;2.58;2.38;;;;;;;0.64;100.00;99945.59;5073833;28;20064;-76
2021/05/01 05:13:40;;;;;;;3.03;2.78;;;;;;;0.68;100.00;99951.81;5087375;28;20059;-76
2021/05/01 05:16:43;;;;;;;8.73;2.80;;;;;;;0.74;100.00;99946.66;5093995;28;20059;-76
2021/05/01 05:19:47;;;;;;;5.32;3.60;;;;;;;0.81;100.00;99938.38;5093863;28;20083;-76
2021/05/01 05:22:50;;;;;;;3.65;3.35;;;;;;;0.89;100.00;99939.09;5093724;28;20406;-76
2021/05/01 05:25:54;;;;;;;6.18;2.70;;;;;;;0.95;100.00;99943.72;5093845;28;20055;-76
2021/05/01 05:28:58;;;;;;;5.53;2.88;;;;;;;0.95;100.00;99949.22;5093664;28;20401;-76
2021/05/01 05:32:04;;;;;;;7.00;2.60;;;;;;;0.90;100.00;99951.59;5094748;28;20418;-76
2021/05/01 05:35:08;;;;;;;3.72;2.30;;;;;;;0.87;100.00;99944.22;5094646;28;20063;-76
2021/05/01 05:38:11;;;;;;;2.10;2.00;;;;;;;0.83;100.00;99943.44;5094662;28;20051;-76
2021/05/01 05:41:15;;;;;;;7.13;3.70;;;;;;;0.78;100.00;99950.16;5094125;28;20055;-76
2021/05/01 05:44:19;;;;;;;2.42;2.33;;;;;;;0.79;100.00;99951.72;5093895;28;20051;-76
2021/05/01 05:47:23;;;;;;;3.28;3.08;;;;;;;0.82;100.00;99964.63;5091234;28;20453;-76
2021/05/01 05:50:26;;;;;;;5.63;3.00;;;;;;;0.88;100.00;99960.25;5074266;28;20055;-76
2021/05/01 05:53:30;;;;;;;6.55;4.18;;;;;;;0.99;100.00;99965.59;5074218;28;20410;-76
2021/05/01 05:56:34;;;;;;;2.90;2.70;;;;;;;1.10;100.00;99964.31;5074041;28;20047;-76
2021/05/01 05:59:38;;;;;;;6.18;2.70;;;;;;;1.25;100.00;99967.66;5074152;28;20060;-76
2021/05/01 06:02:43;;;;;;;6.90;2.28;;;;;;;1.41;100.00;99973.34;5074917;28;20047;-76
2021/05/01 06:05:51;;;;;;;3.05;2.80;;;;;;;1.50;100.00;99985.38;5074893;28;20055;-76
2021/05/01 06:08:55;;;;;;;4.75;3.53;;;;;;;1.61;100.00;99984.44;5074780;28;20060;-76
2021/05/01 06:12:00;;;;;;;10.30;3.13;;;;;;;1.74;100.00;99986.25;5079606;28;20047;-76
2021/05/01 06:15:13;;;;;;;2.17;2.08;;;;;;;1.93;100.00;99984.78;5087199;28;20107;-76
2021/05/01 06:18:21;;;;;;;6.00;2.83;;;;;;;2.16;100.00;99987.63;5080685;28;20051;-76
2021/05/01 06:21:25;;;;;;;3.10;2.63;;;;;;;2.44;100.00;99986.38;5071828;28;20052;-76
2021/05/01 06:24:28;;;;;;;3.08;2.72;;;;;;;2.65;100.00;99986.81;5072054;28;20055;-76
2021/05/01 06:27:33;;;;;;;68.68;15.60;;;;;;;2.82;100.00;99990.44;5072121;28;20067;-77
2021/05/01 06:30:39;;;;;;;80.90;16.85;;;;;;;2.92;100.00;99990.25;5071846;28;20048;-77
2021/05/01 06:33:43;;;;;;;18.80;7.15;;;;;;;3.13;100.00;99996.56;5071698;28;20052;-77
2021/05/01 06:36:46;;;;;;;39.60;12.30;;;;;;;3.32;100.00;99995.78;5071993;28;20510;-76
2021/05/01 06:39:53;;;;;;;27.73;9.73;;;;;;;3.41;100.00;99996.78;5059906;28;20052;-77
2021/05/01 06:43:03;;;;;;;37.05;9.55;;;;;;;3.56;100.00;99989.03;5071990;28;20063;-77
2021/05/01 06:46:07;;;;;;;21.08;9.02;;;;;;;3.69;100.00;99992.69;5071999;28;20107;-77
2021/05/01 06:49:34;;;;;;;13.38;5.80;;;;;;;3.83;100.00;99989.63;5071783;28;20056;-77
2021/05/01 06:52:43;;;;;;;9.40;4.90;;;;;;;3.94;100.00;99986.66;5071442;28;20071;-77
2021/05/01 06:55:46;;;;;;;7.28;4.32;;;;;;;4.05;100.00;99993.47;5071700;28;20052;-77
2021/05/01 06:58:50;;;;;;;8.88;4.18;;;;;;;4.19;100.00;99990.38;5071113;28;20075;-77
2021/05/01 07:01:54;;;;;;;8.90;4.13;;;;;;;4.30;100.00;99996.44;5071786;28;20059;-77
2021/05/01 07:05:00;;;;;;;5.65;4.05;;;;;;;4.38;100.00;99994.28;5071168;28;20063;-77
2021/05/01 07:08:04;;;;;;;6.13;3.80;;;;;;;4.45;100.00;99994.88;5071925;28;20048;-77
2021/05/01 07:11:10;;;;;;;6.68;3.63;;;;;;;4.59;100.00;99994.53;5071398;28;20079;-77
2021/05/01 07:14:14;;;;;;;6.20;3.35;;;;;;;4.71;100.00;99995.03;5071106;28;20063;-76
2021/05/01 07:17:17;;;;;;;6.32;4.40;;;;;;;4.84;100.00;99993.13;5071028;28;20402;-76
2021/05/01 07:20:22;;;;;;;4.35;2.17;;;;;;;4.97;100.00;99991.22;5071460;28;20059;-76
2021/05/01 07:23:26;;;;;;;11.32;3.03;;;;;;;5.11;100.00;99988.09;5059087;28;20422;-76
2021/05/01 07:26:34;;;;;;;7.00;3.58;;;;;;;5.25;100.00;99996.75;5071549;28;20056;-75
2021/05/01 07:29:40;;;;;;;5.35;3.35;;;;;;;5.35;100.00;99994.91;5071475;28;20064;-75
2021/05/01 07:32:47;;;;;;;1.92;1.70;;;;;;;5.48;100.00;100006.03;5071306;28;20056;-75
2021/05/01 07:35:55;;;;;;;18.38;1.90;;;;;;;5.56;100.00;100002.63;5070580;28;20067;-75
2021/05/01 07:39:00;;;;;;;3.47;1.98;;;;;;;5.71;100.00;100000.22;5070457;28;20048;-75
2021/05/01 07:42:04;;;;;;;4.85;2.05;;;;;;;5.83;100.00;100003.00;5070123;28;20056;-75
2021/05/01 07:45:10;;;;;;;3.28;2.13;;;;;;;5.94;100.00;100003.50;5070367;28;20075;-75
2021/05/01 07:48:15;;;;;;;1.83;1.73;;;;;;;6.05;100.00;100003.94;5070135;28;20060;-75
2021/05/01 07:51:19;;;;;;;2.10;1.77;;;;;;;6.11;100.00;100013.22;5069679;28;20541;-75
2021/05/01 07:54:22;;;;;;;2.08;1.98;;;;;;;6.23;100.00;100014.47;5069961;28;20136;-76
2021/05/01 07:57:26;;;;;;;4.15;1.40;;;;;;;6.31;100.00;100001.19;5061148;28;20051;-75
2021/05/01 08:00:30;;;;;;;12.45;2.33;;;;;;;6.41;100.00;100000.84;5079697;28;20115;-76
2021/05/01 08:03:34;;;;;;;2.47;1.88;;;;;;;6.46;100.00;99999.50;5070401;28;20052;-76
2021/05/01 08:06:38;;;;;;;3.28;2.13;;;;;;;6.56;100.00;100003.94;5070668;28;20059;-75
2021/05/01 08:09:41;;;;;;;2.63;1.92;;;;;;;6.64;100.00;100008.03;5070808;28;20056;-76
2021/05/01 08:12:45;;;;;;;1.92;1.33;;;;;;;6.68;100.00;99994.84;5070846;28;20051;-76
2021/05/01 08:15:48;;;;;;;4.10;1.67;;;;;;;6.65;100.00;100002.03;5070822;28;20410;-76
2021/05/01 08:18:52;;;;;;;1.77;1.65;;;;;;;6.70;100.00;99997.94;5070768;28;20059;-76
2021/05/01 08:21:55;;;;;;;1.85;1.45;;;;;;;6.72;100.00;99996.28;5073511;28;20418;-76
2021/05/01 08:24:59;;;;;;;5.90;2.17;;;;;;;6.72;100.00;99995.50;5073244;28;20533;-76
2021/05/01 08:28:02;;;;;;;2.78;1.50;;;;;;;6.92;100.00;99990.47;5074058;28;20119;-76
2021/05/01 08:31:06;;;;;;;3.83;1.33;;;;;;;7.12;100.00;99995.72;5073277;28;20055;-76
2021/05/01 08:34:09;;;;;;;2.05;1.15;;;;;;;7.14;100.00;99988.53;5073615;28;20055;-76
2021/05/01 08:37:13;;;;;;;2.25;2.10;;;;;;;7.37;100.00;99996.38;5073420;28;20573;-76
2021/05/01 08:40:17;;;;;;;7.63;2.20;;;;;;;7.68;100.00;99998.44;5073494;28;20528;-77
2021/05/01 08:43:20;;;;;;;2.05;1.55;;;;;;;8.07;100.00;100001.31;5072716;28;20051;-77
2021/05/01 08:46:24;;;;;;;2.78;1.00;;;;;;;8.38;100.00;99990.97;5072454;28;20063;-77
2021/05/01 08:49:29;;;;;;;3.35;1.20;;;;;;;8.51;100.00;99993.63;5093102;28;20055;-81
2021/05/01 08:52:35;;;;;;;1.05;0.80;;;;;;;8.70;100.00;99988.91;5094709;28;20051;-80
2021/05/01 08:55:39;;;;;;;1.73;1.45;;;;;;;8.95;100.00;99997.75;5099274;28;20070;-80
2021/05/01 08:58:42;;;;;;;2.25;0.70;;;;;;;9.28;100.00;99994.38;5099530;28;20106;-81
2021/05/01 09:01:50;;;;;;;1.65;1.13;;;;;;;9.46;100.00;99988.81;5094045;28;20055;-81
2021/05/01 09:04:56;;;;;;;2.85;2.00;;;;;;;9.92;100.00;99987.47;5080826;28;20051;-82
2021/05/01 09:08:03;;;;;;;2.65;1.17;;;;;;;9.89;100.00;99982.88;5093693;28;20055;-82
2021/05/01 09:11:07;;;;;;;18.63;2.15;;;;;;;9.49;100.00;99996.22;5093486;28;20055;-79
2021/05/01 09:14:22;;;;;;;0.98;0.82;;;;;;;9.22;100.00;99990.69;5093234;28;20398;-79
2021/05/01 09:17:26;;;;;;;0.65;0.45;;;;;;;8.76;100.00;99998.97;5092990;28;20070;-79
2021/05/01 09:20:30;;;;;;;2.15;0.40;;;;;;;8.50;100.00;100002.41;5093624;28;20059;-78
2021/05/01 09:23:37;;;;;;;0.77;0.60;;;;;;;8.28;100.00;100005.28;5094061;28;20138;-79
2021/05/01 09:26:42;;;;;;;1.17;1.17;;;;;;;8.20;100.00;100003.97;5080241;28;20052;-79
2021/05/01 09:29:46;;;;;;;0.70;0.70;;;;;;;8.10;100.00;100003.16;5092965;28;20051;-79
2021/05/01 09:32:50;;;;;;;2.67;2.05;;;;;;;7.96;100.00;100000.16;5091904;28;20055;-78
2021/05/01 09:36:02;;;;;;;3.10;0.85;;;;;;;7.78;100.00;99997.28;5092704;28;20059;-78
2021/05/01 09:39:12;;;;;;;7.47;1.20;;;;;;;7.56;100.00;99998.06;5093005;28;20055;-79
2021/05/01 09:42:18;;;;;;;26.77;6.50;;;;;;;7.36;100.00;100000.38;5092398;28;20071;-81
2021/05/01 09:45:27;;;;;;;9.52;3.15;;;;;;;7.18;100.00;100005.00;5091650;28;20055;-79
2021/05/01 09:48:30;;;;;;;5.00;1.58;;;;;;;6.95;100.00;100010.94;5080140;28;20059;-79
2021/05/01 09:51:55;;;;;;;1.83;1.70;;;;;;;6.62;100.00;100014.00;5072409;28;20075;-80
2021/05/01 09:54:59;;;;;;;1.17;1.08;;;;;;;6.45;100.00;100014.56;5071543;28;20398;-82
2021/05/01 09:58:10;;;;;;;5.07;1.67;;;;;;;6.42;100.00;100013.47;5071359;28;20047;-80
2021/05/01 10:01:18;;;;;;;1.67;1.58;;;;;;;6.48;100.00;100013.66;5072227;28;20089;-84
2021/05/01 10:04:21;;;;;;;2.75;1.45;;;;;;;6.56;100.00;100015.75;5071549;28;20310;-80
2021/05/01 10:07:26;;;;;;;1.23;0.98;;;;;;;6.67;100.00;100015.44;5059428;28;20060;-82
2021/05/01 10:10:40;;;;;;;0.77;0.77;;;;;;;6.83;100.00;100018.06;5071450;28;20052;-79
2021/05/01 10:13:52;;;;;;;0.88;0.85;;;;;;;6.99;100.00;100019.91;5071730;28;20051;-80
2021/05/01 10:16:56;;;;;;;1.80;1.50;;;;;;;7.16;100.00;100019.31;5071697;28;20056;-80
2021/05/01 10:20:05;;;;;;;1.45;0.82;;;;;;;7.35;100.00;100018.22;5071839;28;20115;-80
2021/05/01 10:23:10;;;;;;;0.57;0.55;;;;;;;7.57;100.00;100010.72;5072352;28;20059;-79
2021/05/01 10:26:13;;;;;;;1.95;0.98;;;;;;;7.91;100.00;100006.28;5072998;28;20067;-79
2021/05/01 10:29:44;;;;;;;1.20;1.08;;;;;;;8.25;100.00;100006.94;5075618;28;20055;-82
2021/05/01 10:32:53;;;;;;;1.10;0.50;;;;;;;8.37;100.00;100011.66;5061774;28;20414;-80
2021/05/01 10:35:58;;;;;;;2.65;0.65;;;;;;;8.40;100.00;100012.75;5071738;28;20059;-80
2021/05/01 10:39:09;;;;;;;0.32;0.32;;;;;;;8.40;100.00;100012.75;5071627;28;20055;-80
2021/05/01 10:42:13;;;;;;;;;;;;;;;8.43;100.00;100013.81;5072370;28;20059;-79
2021/05/01 10:45:25;;;;;;;0.63;0.40;;;;;;;8.53;100.00;100012.63;5070807;28;19920;-79
2021/05/01 10:48:29;;;;;;;0.65;0.65;;;;;;;8.68;100.00;100017.16;5071038;28;20048;-80
2021/05/01 10:51:37;;;;;;;1.20;0.65;;;;;;;9.03;100.00;100012.88;5071638;28;20055;-80
2021/05/01 10:55:10;;;;;;;0.20;0.20;;;;;;;9.37;100.00;100013.84;5071545;28;20508;-80
2021/05/01 10:58:29;;;;;;;1.30;0.50;;;;;;;9.53;100.00;100010.75;5070589;28;20059;-80
2021/05/01 11:01:43;;;;;;;0.55;0.40;;;;;;;9.72;100.00;99998.38;5070831;28;20406;-79
2021/05/01 11:04:55;;;;;;;2.85;1.10;;;;;;;9.79;100.00;99995.25;5070958;28;20048;-79
2021/05/01 11:08:26;;;;;;;0.63;0.50;;;;;;;9.82;100.00;100000.66;5071473;28;20059;-80
2021/05/01 11:11:33;;;;;;;0.35;0.30;;;;;;;9.98;100.00;99996.75;5070008;28;20056;-80
2021/05/01 11:14:40;;;;;;;1.05;0.77;;;;;;;10.22;100.00;100000.41;5051004;28;20060;-79
2021/05/01 11:18:06;;;;;;;1.58;0.93;;;;;;;10.61;100.00;99990.94;5051031;28;20053;-79
2021/05/01 11:21:11;;;;;;;1.10;0.80;;;;;;;10.78;100.00;99996.13;5053594;28;20048;-78
2021/05/01 11:24:15;;;;;;;4.38;0.93;;;;;;;10.98;100.00;99993.53;5050525;28;20289;-79
2021/05/01 11:27:19;;;;;;;5.35;1.45;;;;;;;11.38;100.00;99988.25;5050144;28;20060;-79
2021/05/01 11:30:26;;;;;;;4.07;0.98;;;;;;;11.64;100.00;99994.06;5050677;28;20060;-80
2021/05/01 11:33:30;;;;;;;0.73;0.50;;;;;;;11.54;100.00;100000.97;5050865;28;20056;-79
2021/05/01 11:36:43;;;;;;;1.52;0.95;;;;;;;11.25;100.00;99996.09;5050709;28;20068;-80
2021/05/01 11:39:48;;;;;;;1.83;0.90;;;;;;;11.03;100.00;99995.63;5050772;28;20056;-79
2021/05/01 11:42:54;;;;;;;3.05;0.65;;;;;;;11.01;100.00;99992.56;5050507;28;20056;-79
2021/05/01 11:46:17;;;;;;;1.08;0.38;;;;;;;10.63;100.00;99985.66;5050789;28;20414;-79
2021/05/01 11:49:26;;;;;;;1.15;0.80;;;;;;;10.18;100.00;99980.31;5065608;28;20051;-79
2021/05/01 11:52:42;;;;;;;0.50;0.13;;;;;;;9.83;100.00;99995.88;5070701;28;20052;-79
2021/05/01 11:55:46;;;;;;;0.43;0.43;;;;;;;9.67;100.00;99987.84;5069863;28;20059;-79
2021/05/01 11:58:49;;;;;;;0.90;0.30;;;;;;;9.53;100.00;99982.94;5081228;28;20055;-79
2021/05/01 12:02:03;;;;;;;1.65;0.40;;;;;;;9.33;100.00;99991.00;5070617;28;20553;-79
2021/05/01 12:05:34;;;;;;;1.00;0.40;;;;;;;9.25;100.00;99984.94;5070445;28;20422;-79
2021/05/01 12:08:38;;;;;;;1.45;0.60;;;;;;;9.55;100.00;99986.78;5069743;28;20091;-79
2021/05/01 12:11:47;;;;;;;1.30;0.85;;;;;;;9.90;100.00;99978.84;5090440;28;20051;-79
2021/05/01 12:15:01;;;;;;;4.55;0.70;;;;;;;10.45;100.00;99971.88;5069869;28;20071;-79
2021/05/01 12:18:06;;;;;;;0.40;0.30;;;;;;;10.85;100.00;99962.34;5058092;28;20068;-79
2021/05/01 12:21:21;;;;;;;0.40;0.32;;;;;;;10.86;100.00;99964.66;5070120;28;20071;-78
2021/05/01 12:24:28;;;;;;;0.45;0.15;;;;;;;10.87;100.00;99968.97;5069398;28;20556;-78
2021/05/01 12:27:48;;;;;;;0.75;0.50;;;;;;;11.06;100.00;99961.25;5081261;28;20449;-78
2021/05/01 12:30:52;;;;;;;2.40;0.95;;;;;;;11.35;100.00;99961.31;5072838;28;20056;-77
2021/05/01 12:33:55;;;;;;;2.22;0.30;;;;;;;11.42;100.00;99960.94;5070534;28;20060;-75
2021/05/01 12:37:00;;;;;;;1.42;0.45;;;;;;;11.20;100.00;99966.09;5070140;28;20396;-76
2021/05/01 12:40:07;;;;;;;3.47;0.63;;;;;;;10.89;100.00;99951.78;5070212;28;20410;-77
2021/05/01 12:43:31;;;;;;;1.27;0.43;;;;;;;10.89;100.00;99960.16;5070023;28;20528;-77
2021/05/01 12:46:40;;;;;;;3.97;0.75;;;;;;;11.15;100.00;99955.63;5069462;28;20056;-79
2021/05/01 12:49:43;;;;;;;0.20;0.10;;;;;;;11.03;100.00;99962.19;5069994;28;20067;-77
2021/05/01 12:52:47;;;;;;;3.05;0.88;;;;;;;11.22;100.00;99958.03;5069918;28;20056;-78
2021/05/01 12:56:17;;;;;;;2.28;0.40;;;;;;;11.67;100.00;99959.66;5069527;28;20501;-77
2021/05/01 12:59:20;;;;;;;1.00;0.30;;;;;;;11.43;100.00;99966.03;5068202;28;20056;-76
2021/05/01 13:02:25;;;;;;;0.30;0.22;;;;;;;10.97;100.00;99958.53;5068836;28;20072;-79
2021/05/01 13:05:29;;;;;;;0.57;0.35;;;;;;;10.75;100.00;99958.84;5068989;28;20422;-78
2021/05/01 13:08:35;;;;;;;1.58;0.68;;;;;;;10.54;100.00;99954.34;5072722;28;20532;-78
2021/05/01 13:11:39;;;;;;;1.13;0.75;;;;;;;10.49;100.00;99952.19;5072786;28;20118;-78
2021/05/01 13:14:45;;;;;;;0.45;0.35;;;;;;;10.48;100.00;99956.97;5072547;28;20426;-77
2021/05/01 13:18:06;;;;;;;0.35;0.25;;;;;;;10.35;100.00;99950.88;5083032;28;20067;-75
2021/05/01 13:21:10;;;;;;;6.07;0.45;;;;;;;10.29;100.00;99944.41;5072425;28;20457;-76
2021/05/01 13:24:15;;;;;;;0.68;0.40;;;;;;;10.30;100.00;99951.53;5072251;28;20127;-78
2021/05/01 13:27:19;;;;;;;1.55;0.50;;;;;;;10.72;100.00;99943.06;5071714;28;20064;-76
2021/05/01 13:30:26;;;;;;;2.50;0.60;;;;;;;11.30;100.00;99943.22;5072970;28;20060;-79
2021/05/01 13:33:30;;;;;;;1.60;0.47;;;;;;;11.29;100.00;99941.69;5076029;28;20512;-78
2021/05/01 13:36:33;;;;;;;0.45;0.40;;;;;;;11.16;100.00;99943.22;5073756;28;20052;-79
2021/05/01 13:39:38;;;;;;;2.05;0.20;;;;;;;11.02;100.00;99936.34;5072299;28;20071;-77
2021/05/01 13:42:42;;;;;;;0.57;0.30;;;;;;;10.89;100.00;99940.66;5072108;28;20055;-78
2021/05/01 13:45:47;;;;;;;2.17;0.88;;;;;;;10.78;100.00;99940.41;5071809;28;20501;-76
2021/05/01 13:48:53;;;;;;;1.63;0.32;;;;;;;10.81;100.00;99933.88;5058977;28;20060;-77
2021/05/01 13:51:56;;;;;;;1.13;0.60;;;;;;;10.66;100.00;99934.59;5051814;28;20052;-75
2021/05/01 13:55:33;;;;;;;0.95;0.65;;;;;;;10.93;100.00;99935.66;5051662;28;20526;-75
2021/05/01 13:58:38;;;;;;;1.20;0.47;;;;;;;11.06;100.00;99930.59;5051121;28;20052;-75
2021/05/01 14:01:48;;;;;;;1.52;1.05;;;;;;;10.92;100.00;99934.09;5051857;28;20530;-77
2021/05/01 14:04:51;;;;;;;1.52;0.90;;;;;;;10.56;100.00;99924.00;5050418;28;20056;-76
2021/05/01 14:07:57;;;;;;;0.30;0.30;;;;;;;10.30;100.00;99931.25;5051479;28;20079;-75
2021/05/01 14:11:01;;;;;;;0.73;0.30;;;;;;;10.11;100.00;99925.03;5051733;28;20048;-74
2021/05/01 14:14:05;;;;;;;1.50;0.80;;;;;;;9.99;100.00;99934.31;5068169;28;20052;-76
2021/05/01 14:17:09;;;;;;;2.17;0.30;;;;;;;9.83;100.00;99934.69;5071575;28;20063;-77
2021/05/01 14:20:15;;;;;;;0.75;0.22;;;;;;;9.66;100.00;99930.69;5071380;28;20418;-76
2021/05/01 14:23:23;;;;;;;0.60;0.40;;;;;;;9.58;100.00;99926.69;5070600;28;20047;-75
2021/05/01 14:26:27;;;;;;;0.47;0.38;;;;;;;9.71;100.00;99932.84;5071471;28;20337;-76
2021/05/01 14:29:31;;;;;;;0.70;0.70;;;;;;;10.03;100.00;99928.59;5071754;28;20055;-74